createdAt,value
2017-11-12T00:00:32.310Z,92.60
2017-11-12T00:02:59.916Z,92.20
2017-11-12T00:05:28.298Z,92.30
2017-11-12T00:07:55.924Z,92.20
2017-11-12T00:10:23.515Z,91.90
2017-11-12T00:12:51.186Z,92.20
2017-11-12T00:15:18.859Z,92.00
2017-11-12T00:17:47.256Z,92.60
2017-11-12T00:20:14.861Z,92.20
2017-11-12T00:22:42.459Z,92.10
2017-11-12T00:25:10.101Z,92.10
2017-11-12T00:27:37.754Z,92.20
2017-11-12T00:30:05.393Z,92.10
2017-11-12T00:32:32.999Z,92.20
2017-11-12T00:35:01.386Z,92.60
2017-11-12T00:37:29.000Z,92.10
2017-11-12T00:39:56.611Z,92.20
2017-11-12T00:42:24.283Z,92.10
2017-11-12T00:44:51.880Z,92.20
2017-11-12T00:47:19.520Z,92.30
2017-11-12T00:49:47.872Z,92.50
2017-11-12T00:52:15.493Z,91.80
2017-11-12T00:54:43.128Z,91.90
2017-11-12T00:57:10.748Z,91.70
2017-11-12T00:59:38.385Z,91.50
2017-11-12T01:02:05.986Z,91.60
2017-11-12T01:04:33.626Z,91.80
2017-11-12T01:07:01.226Z,91.90
2017-11-12T01:09:28.848Z,92.00
2017-11-12T01:11:56.473Z,92.10
2017-11-12T01:14:24.084Z,92.10
2017-11-12T01:16:51.687Z,92.20
2017-11-12T01:19:19.324Z,92.20
2017-11-12T01:21:47.703Z,92.60
2017-11-12T01:24:15.348Z,92.20
2017-11-12T01:26:43.725Z,92.60
2017-11-12T01:29:11.357Z,92.20
2017-11-12T01:31:48.949Z,92.60
2017-11-12T01:34:16.711Z,92.70
2017-11-12T01:36:44.347Z,92.30
2017-11-12T01:39:12.009Z,92.10
2017-11-12T01:41:39.605Z,92.10
2017-11-12T01:44:08.038Z,92.00
2017-11-12T01:46:35.700Z,91.50
2017-11-12T01:49:03.320Z,91.50
2017-11-12T01:51:30.966Z,91.60
2017-11-12T01:53:58.580Z,91.90
2017-11-12T01:56:26.283Z,91.80
2017-11-12T01:58:53.971Z,91.80
2017-11-12T02:01:21.657Z,92.00
2017-11-12T02:03:49.272Z,92.30
2017-11-12T02:06:16.917Z,92.00
2017-11-12T02:08:44.512Z,91.80
2017-11-12T02:11:12.097Z,91.90
2017-11-12T02:13:40.482Z,92.20
2017-11-12T02:16:08.182Z,91.70
2017-11-12T02:18:35.801Z,91.60
2017-11-12T02:21:03.397Z,91.90
2017-11-12T02:23:31.819Z,92.20
2017-11-12T02:25:59.435Z,91.90
2017-11-12T02:28:27.071Z,91.60
2017-11-12T02:30:54.752Z,91.70
2017-11-12T02:33:22.374Z,91.90
2017-11-12T02:35:50.038Z,92.20
2017-11-12T02:38:17.642Z,91.80
2017-11-12T02:40:46.064Z,92.40
2017-11-12T02:43:13.693Z,91.90
2017-11-12T02:45:41.306Z,91.70
2017-11-12T02:48:08.918Z,91.90
2017-11-12T02:50:36.548Z,91.90
2017-11-12T02:53:04.215Z,91.60
2017-11-12T02:55:31.870Z,91.70
2017-11-12T02:57:59.545Z,91.70
2017-11-12T03:00:27.873Z,91.90
2017-11-12T03:02:55.545Z,91.80
2017-11-12T03:05:23.140Z,92.00
2017-11-12T03:07:50.759Z,91.90
2017-11-12T03:10:18.415Z,91.90
2017-11-12T03:12:45.981Z,91.90
2017-11-12T03:15:13.600Z,91.90
2017-11-12T03:17:41.359Z,92.00
2017-11-12T03:20:09.125Z,91.90
2017-11-12T03:22:36.745Z,91.80
2017-11-12T03:25:04.441Z,91.90
2017-11-12T03:27:32.220Z,91.80
2017-11-12T03:30:00.637Z,92.20
2017-11-12T03:32:28.264Z,91.70
2017-11-12T03:34:55.885Z,91.60
2017-11-12T03:37:23.525Z,91.60
2017-11-12T03:39:52.020Z,91.90
2017-11-12T03:42:22.040Z,91.60
2017-11-12T03:44:50.019Z,91.50
2017-11-12T03:47:17.946Z,91.40
2017-11-12T03:49:50.157Z,91.40
2017-11-12T03:52:17.786Z,91.30
2017-11-12T03:54:46.754Z,91.30
2017-11-12T03:57:14.547Z,91.60
2017-11-12T03:59:42.316Z,91.60
2017-11-12T04:02:09.953Z,91.60
2017-11-12T04:04:37.563Z,91.60
2017-11-12T04:07:05.183Z,91.80
2017-11-12T04:09:32.829Z,91.50
2017-11-12T04:12:00.470Z,91.50
2017-11-12T04:14:28.215Z,91.50
2017-11-12T04:16:56.359Z,91.60
2017-11-12T04:19:23.980Z,91.50
2017-11-12T04:21:51.594Z,91.40
2017-11-12T04:24:19.267Z,91.50
2017-11-12T04:26:46.871Z,91.60
2017-11-12T04:29:14.578Z,91.60
2017-11-12T04:31:42.166Z,91.60
2017-11-12T04:34:09.760Z,91.80
2017-11-12T04:36:37.379Z,91.40
2017-11-12T04:39:05.764Z,91.90
2017-11-12T04:41:33.389Z,91.60
2017-11-12T04:44:00.996Z,91.50
2017-11-12T04:46:29.699Z,91.50
2017-11-12T04:48:57.342Z,91.50
2017-11-12T04:51:24.973Z,91.40
2017-11-12T04:53:52.620Z,91.50
2017-11-12T04:56:20.235Z,91.40
2017-11-12T04:58:47.853Z,91.30
2017-11-12T05:01:15.610Z,91.80
2017-11-12T05:03:43.257Z,91.60
2017-11-12T05:06:10.858Z,91.70
2017-11-12T05:08:38.586Z,91.90
2017-11-12T05:11:06.186Z,91.70
2017-11-12T05:13:34.666Z,92.40
2017-11-12T05:16:02.423Z,92.00
2017-11-12T05:18:30.030Z,91.90
2017-11-12T05:20:57.675Z,92.00
2017-11-12T05:23:25.301Z,91.90
2017-11-12T05:25:53.584Z,91.80
2017-11-12T05:28:21.209Z,92.00
2017-11-12T05:30:48.844Z,91.90
2017-11-12T05:33:16.861Z,91.90
2017-11-12T05:35:44.461Z,92.00
2017-11-12T05:38:12.078Z,91.80
2017-11-12T05:40:39.708Z,91.80
2017-11-12T05:43:07.405Z,92.00
2017-11-12T05:45:35.023Z,91.80
2017-11-12T05:48:02.722Z,91.60
2017-11-12T05:50:30.413Z,91.50
2017-11-12T05:52:58.053Z,91.60
2017-11-12T05:55:25.704Z,91.50
2017-11-12T05:57:53.346Z,91.70
2017-11-12T06:00:21.008Z,92.00
2017-11-12T06:02:48.610Z,92.00
2017-11-12T06:05:16.235Z,92.10
2017-11-12T06:07:43.882Z,91.90
2017-11-12T06:10:11.521Z,91.90
2017-11-12T06:12:39.137Z,92.40
2017-11-12T06:15:06.765Z,92.10
2017-11-12T06:17:34.408Z,91.80
2017-11-12T06:20:05.604Z,91.70
2017-11-12T06:22:33.254Z,92.30
2017-11-12T06:25:01.664Z,92.00
2017-11-12T06:27:29.268Z,91.90
2017-11-12T06:29:57.658Z,92.50
2017-11-12T06:32:25.312Z,91.90
2017-11-12T06:34:52.943Z,91.70
2017-11-12T06:37:20.555Z,91.80
2017-11-12T06:39:48.179Z,91.80
2017-11-12T06:42:15.905Z,92.00
2017-11-12T06:44:43.504Z,91.70
2017-11-12T06:47:11.117Z,91.80
2017-11-12T06:49:38.795Z,91.70
2017-11-12T06:52:06.453Z,91.70
2017-11-12T06:54:34.845Z,91.70
2017-11-12T06:57:03.235Z,92.20
2017-11-12T06:59:30.952Z,91.80
2017-11-12T07:01:58.552Z,91.80
2017-11-12T07:04:26.165Z,91.80
2017-11-12T07:06:53.781Z,91.80
2017-11-12T07:09:21.416Z,91.80
2017-11-12T07:11:49.783Z,92.20
2017-11-12T07:14:17.377Z,91.70
2017-11-12T07:16:45.032Z,91.80
2017-11-12T07:19:12.647Z,91.80
2017-11-12T07:21:40.285Z,91.80
2017-11-12T07:24:07.921Z,91.80
2017-11-12T07:26:36.320Z,92.20
2017-11-12T07:29:03.924Z,91.90
2017-11-12T07:31:32.282Z,92.30
2017-11-12T07:33:59.892Z,92.20
2017-11-12T07:36:27.507Z,91.80
2017-11-12T07:38:55.122Z,91.70
2017-11-12T07:41:22.771Z,91.80
2017-11-12T07:43:50.435Z,91.70
2017-11-12T07:46:18.037Z,91.60
2017-11-12T07:48:46.369Z,91.50
2017-11-12T07:51:13.969Z,91.40
2017-11-12T07:53:41.623Z,91.40
2017-11-12T07:56:09.195Z,91.50
2017-11-12T07:58:36.805Z,91.40
2017-11-12T08:01:04.432Z,91.70
2017-11-12T08:03:32.098Z,91.50
2017-11-12T08:05:59.839Z,91.50
2017-11-12T08:08:27.444Z,91.60
2017-11-12T08:10:55.071Z,91.60
2017-11-12T08:13:22.709Z,91.60
2017-11-12T08:15:50.347Z,91.70
2017-11-12T08:18:22.419Z,92.20
2017-11-12T08:20:50.055Z,91.70
2017-11-12T08:23:17.683Z,91.70
2017-11-12T08:25:45.345Z,91.70
2017-11-12T08:28:13.745Z,92.70
2017-11-12T08:30:41.418Z,91.70
2017-11-12T08:33:09.035Z,91.90
2017-11-12T08:35:36.698Z,92.00
2017-11-12T08:38:04.330Z,92.00
2017-11-12T08:40:32.036Z,92.20
2017-11-12T08:43:00.441Z,93.20
2017-11-12T08:45:28.120Z,92.80
2017-11-12T08:47:55.761Z,92.60
2017-11-12T08:50:23.379Z,92.80
2017-11-12T08:52:51.051Z,92.70
2017-11-12T08:55:18.681Z,92.70
2017-11-12T08:57:46.294Z,92.60
2017-11-12T09:00:13.996Z,92.50
2017-11-12T09:02:41.602Z,92.50
2017-11-12T09:05:09.224Z,92.40
2017-11-12T09:07:37.672Z,92.80
2017-11-12T09:10:05.280Z,92.50
2017-11-12T09:12:32.923Z,92.40
2017-11-12T09:15:05.420Z,92.20
2017-11-12T09:17:33.252Z,92.50
2017-11-12T09:20:00.910Z,92.10
2017-11-12T09:22:28.672Z,92.10
2017-11-12T09:24:56.425Z,92.00
2017-11-12T09:27:24.862Z,92.70
2017-11-12T09:29:52.623Z,92.20
2017-11-12T09:32:20.261Z,92.20
2017-11-12T09:34:48.127Z,92.10
2017-11-12T09:37:16.657Z,92.10
2017-11-12T09:39:44.363Z,92.00
2017-11-12T09:42:12.099Z,91.90
2017-11-12T09:44:40.034Z,92.00
2017-11-12T09:47:07.724Z,92.00
2017-11-12T09:49:35.421Z,92.00
2017-11-12T09:52:03.093Z,91.90
2017-11-12T09:54:30.719Z,92.10
2017-11-12T09:56:58.296Z,91.70
2017-11-12T09:59:25.878Z,91.90
2017-11-12T10:01:53.671Z,92.10
2017-11-12T10:04:21.687Z,92.20
2017-11-12T10:06:49.482Z,92.20
2017-11-12T10:09:17.031Z,92.40
2017-11-12T10:11:44.745Z,92.30
2017-11-12T10:14:12.386Z,92.40
2017-11-12T10:16:40.014Z,92.10
2017-11-12T10:19:07.663Z,92.40
2017-11-12T10:21:35.328Z,92.30
2017-11-12T10:24:02.957Z,92.70
2017-11-12T10:26:30.625Z,92.30
2017-11-12T10:28:58.217Z,92.30
2017-11-12T10:31:26.630Z,92.60
2017-11-12T10:33:54.239Z,92.10
2017-11-12T10:36:22.955Z,92.20
2017-11-12T10:38:50.709Z,91.90
2017-11-12T10:41:18.648Z,91.80
2017-11-12T10:43:46.261Z,91.60
2017-11-12T10:46:14.696Z,91.70
2017-11-12T10:48:42.676Z,91.80
2017-11-12T10:51:10.383Z,91.80
2017-11-12T10:53:38.068Z,91.50
2017-11-12T10:56:06.445Z,91.70
2017-11-12T10:58:34.059Z,91.20
2017-11-12T11:01:01.680Z,91.20
2017-11-12T11:03:29.298Z,91.10
2017-11-12T11:05:56.968Z,91.20
2017-11-12T11:08:24.616Z,91.20
2017-11-12T11:10:52.252Z,91.30
2017-11-12T11:13:19.877Z,91.20
2017-11-12T11:15:47.445Z,91.00
2017-11-12T11:18:15.192Z,91.00
2017-11-12T11:20:43.131Z,90.80
2017-11-12T11:23:10.789Z,90.30
2017-11-12T11:25:38.316Z,90.60
2017-11-12T11:28:06.620Z,91.20
2017-11-12T11:30:34.727Z,91.20
2017-11-12T11:33:02.310Z,90.80
2017-11-12T11:35:29.838Z,90.60
2017-11-12T11:37:57.689Z,90.90
2017-11-12T11:40:25.317Z,91.00
2017-11-12T11:42:54.719Z,91.20
2017-11-12T11:45:23.501Z,91.20
2017-11-12T11:47:51.242Z,90.90
2017-11-12T11:50:20.018Z,91.20
2017-11-12T11:52:47.680Z,90.80
2017-11-12T11:55:15.269Z,90.70
2017-11-12T11:57:42.832Z,90.60
2017-11-12T12:00:10.658Z,90.90
2017-11-12T12:02:38.578Z,91.00
2017-11-12T12:05:06.315Z,90.90
2017-11-12T12:07:34.113Z,90.10
2017-11-12T12:10:01.682Z,90.30
2017-11-12T12:12:29.377Z,90.60
2017-11-12T12:14:57.206Z,90.70
2017-11-12T12:17:25.157Z,90.40
2017-11-12T12:19:53.133Z,90.40
2017-11-12T12:22:20.900Z,90.50
2017-11-12T12:24:48.810Z,90.70
2017-11-12T12:27:17.589Z,90.70
2017-11-12T12:29:45.459Z,90.40
2017-11-12T12:32:13.280Z,90.40
2017-11-12T12:34:41.572Z,91.20
2017-11-12T12:37:09.505Z,91.10
2017-11-12T12:39:37.371Z,91.00
2017-11-12T12:42:05.766Z,90.40
2017-11-12T12:44:33.599Z,90.60
2017-11-12T12:47:01.571Z,90.00
2017-11-12T12:49:30.299Z,90.00
2017-11-12T12:51:58.150Z,90.10
2017-11-12T12:54:29.024Z,90.30
2017-11-12T12:56:57.880Z,90.70
2017-11-12T12:59:27.855Z,90.90
2017-11-12T13:01:57.616Z,90.80
2017-11-12T13:04:27.137Z,90.70
2017-11-12T13:06:56.569Z,90.10
2017-11-12T13:09:25.844Z,90.30
2017-11-12T13:11:53.882Z,90.30
2017-11-12T13:14:21.882Z,90.50
2017-11-12T13:16:50.276Z,91.00
2017-11-12T13:19:18.529Z,90.50
2017-11-12T13:21:46.580Z,90.60
2017-11-12T13:24:14.636Z,90.60
2017-11-12T13:26:42.722Z,90.80
2017-11-12T13:29:10.561Z,90.90
2017-11-12T13:31:38.512Z,90.60
2017-11-12T13:34:07.199Z,91.10
2017-11-12T13:36:35.127Z,91.20
2017-11-12T13:39:03.264Z,90.70
2017-11-12T13:41:31.500Z,90.70
2017-11-12T13:43:59.464Z,90.60
2017-11-12T13:46:27.927Z,90.80
2017-11-12T13:48:55.824Z,90.60
2017-11-12T13:51:23.539Z,90.40
2017-11-12T13:53:51.188Z,90.30
2017-11-12T13:56:19.151Z,89.40
2017-11-12T13:58:46.979Z,90.00
2017-11-12T14:01:14.822Z,90.30
2017-11-12T14:03:42.755Z,90.50
2017-11-12T14:06:10.444Z,90.30
2017-11-12T14:08:38.144Z,90.10
2017-11-12T14:11:05.952Z,89.90
2017-11-12T14:13:33.934Z,90.20
2017-11-12T14:16:02.617Z,90.00
2017-11-12T14:18:31.491Z,89.40
2017-11-12T14:20:59.681Z,88.60
2017-11-12T14:23:27.670Z,88.70
2017-11-12T14:25:56.305Z,89.40
2017-11-12T14:28:23.888Z,88.80
2017-11-12T14:30:51.837Z,88.40
2017-11-12T14:33:20.091Z,88.90
2017-11-12T14:35:48.003Z,90.00
2017-11-12T14:38:15.829Z,90.30
2017-11-12T14:40:43.732Z,90.10
2017-11-12T14:43:11.805Z,90.50
2017-11-12T14:45:39.825Z,90.20
2017-11-12T14:48:07.950Z,90.30
2017-11-12T14:50:35.937Z,90.50
2017-11-12T14:53:03.872Z,90.60
2017-11-12T14:55:31.875Z,91.00
2017-11-12T14:57:59.887Z,91.10
2017-11-12T15:00:27.458Z,90.60
2017-11-12T15:02:55.392Z,90.70
2017-11-12T15:05:23.291Z,91.00
2017-11-12T15:07:51.187Z,90.60
2017-11-12T15:10:18.910Z,91.10
2017-11-12T15:12:46.661Z,90.80
2017-11-12T15:15:14.183Z,90.90
2017-11-12T15:17:41.721Z,90.50
2017-11-12T15:20:09.317Z,90.90
2017-11-12T15:22:36.891Z,90.80
2017-11-12T15:25:04.448Z,90.80
2017-11-12T15:27:31.973Z,90.80
2017-11-12T15:29:59.529Z,90.90
2017-11-12T15:32:27.044Z,90.90
2017-11-12T15:34:54.883Z,91.10
2017-11-12T15:37:23.188Z,91.70
2017-11-12T15:39:51.104Z,91.20
2017-11-12T15:42:18.753Z,91.60
2017-11-12T15:44:46.291Z,91.10
2017-11-12T15:47:13.849Z,91.40
2017-11-12T15:49:41.386Z,91.10
2017-11-12T15:52:10.826Z,91.00
2017-11-12T15:54:39.520Z,90.90
2017-11-12T15:57:08.746Z,91.40
2017-11-12T15:59:36.591Z,90.80
2017-11-12T16:02:04.886Z,90.70
2017-11-12T16:04:33.709Z,91.20
2017-11-12T16:07:03.784Z,90.80
2017-11-12T16:09:31.732Z,90.80
2017-11-12T16:12:02.635Z,90.80
2017-11-12T16:14:32.419Z,90.90
2017-11-12T16:17:00.841Z,90.80
2017-11-12T16:19:30.117Z,90.80
2017-11-12T16:21:57.735Z,90.90
2017-11-12T16:24:25.753Z,90.90
2017-11-12T16:26:54.105Z,90.80
2017-11-12T16:29:22.101Z,90.70
2017-11-12T16:31:53.146Z,90.60
2017-11-12T16:34:21.272Z,91.10
2017-11-12T16:36:49.019Z,91.10
2017-11-12T16:39:16.743Z,90.70
2017-11-12T16:41:45.490Z,90.60
2017-11-12T16:44:13.249Z,90.60
2017-11-12T16:46:40.885Z,90.50
2017-11-12T16:49:09.379Z,91.10
2017-11-12T16:51:37.606Z,90.70
2017-11-12T16:54:05.997Z,90.40
2017-11-12T16:56:33.810Z,90.20
2017-11-12T16:59:01.424Z,90.20
2017-11-12T17:01:29.081Z,90.40
2017-11-12T17:03:57.033Z,90.20
2017-11-12T17:06:24.801Z,90.10
2017-11-12T17:08:53.513Z,90.50
2017-11-12T17:11:21.395Z,90.00
2017-11-12T17:13:50.302Z,90.70
2017-11-12T17:16:18.857Z,90.70
2017-11-12T17:18:46.495Z,90.30
2017-11-12T17:21:14.117Z,90.60
2017-11-12T17:23:42.094Z,90.40
2017-11-12T17:26:10.025Z,90.90
2017-11-12T17:28:38.207Z,90.40
2017-11-12T17:31:07.212Z,90.30
2017-11-12T17:33:35.463Z,90.30
2017-11-12T17:36:03.445Z,90.40
2017-11-12T17:38:31.407Z,90.50
2017-11-12T17:40:59.215Z,90.50
2017-11-12T17:43:27.540Z,90.30
2017-11-12T17:45:55.907Z,90.50
2017-11-12T17:48:23.685Z,90.50
2017-11-12T17:50:52.439Z,90.20
2017-11-12T17:53:20.394Z,90.50
2017-11-12T17:55:48.519Z,90.40
2017-11-12T17:58:16.627Z,90.40
2017-11-12T18:00:44.485Z,90.40
2017-11-12T18:03:12.370Z,90.80
2017-11-12T18:05:40.387Z,90.50
2017-11-12T18:08:08.415Z,90.20
2017-11-12T18:10:36.195Z,90.10
2017-11-12T18:13:04.217Z,90.10
2017-11-12T18:15:32.196Z,90.40
2017-11-12T18:18:00.422Z,90.40
2017-11-12T18:20:29.407Z,90.30
2017-11-12T18:22:57.979Z,89.50
2017-11-12T18:25:26.120Z,90.20
2017-11-12T18:27:54.443Z,90.20
2017-11-12T18:30:22.572Z,90.30
2017-11-12T18:32:56.602Z,90.50
2017-11-12T18:35:25.480Z,90.50
2017-11-12T18:37:53.554Z,89.70
2017-11-12T18:40:21.732Z,89.70
2017-11-12T18:42:50.166Z,89.70
2017-11-12T18:45:18.973Z,89.90
2017-11-12T18:47:47.427Z,89.70
2017-11-12T18:50:15.487Z,89.60
2017-11-12T18:52:44.393Z,90.20
2017-11-12T18:55:12.553Z,89.70
2017-11-12T18:57:42.839Z,89.00
2017-11-12T19:03:32.453Z,89.20
2017-11-12T19:09:32.743Z,89.60
2017-11-12T19:15:12.493Z,88.80
2017-11-12T19:17:50.191Z,88.50
2017-11-12T19:20:22.427Z,88.30
2017-11-12T19:23:05.012Z,89.00
2017-11-12T19:25:36.348Z,90.00
2017-11-12T19:28:09.067Z,89.60
2017-11-12T19:30:36.918Z,88.90
2017-11-12T19:33:04.584Z,89.00
2017-11-12T19:35:33.130Z,89.10
2017-11-12T19:38:01.618Z,90.10
2017-11-12T19:40:29.407Z,88.10
2017-11-12T19:42:57.069Z,89.10
2017-11-12T19:45:24.750Z,89.00
2017-11-12T19:47:53.173Z,90.40
2017-11-12T19:50:27.937Z,89.40
2017-11-12T19:52:56.926Z,89.20
2017-11-12T19:55:25.314Z,89.30
2017-11-12T19:57:52.896Z,88.70
2017-11-12T20:00:21.260Z,89.80
2017-11-12T20:02:48.865Z,88.70
2017-11-12T20:05:16.575Z,88.50
2017-11-12T20:07:44.188Z,89.00
2017-11-12T20:10:18.385Z,88.60
2017-11-12T20:12:46.220Z,88.00
2017-11-12T20:15:13.836Z,88.60
2017-11-12T20:17:41.450Z,89.00
2017-11-12T20:20:09.052Z,88.30
2017-11-12T20:22:36.678Z,89.10
2017-11-12T20:25:04.288Z,88.80
2017-11-12T20:27:31.885Z,89.00
2017-11-12T20:29:59.501Z,89.70
2017-11-12T20:32:28.794Z,89.20
2017-11-12T20:34:56.420Z,89.30
2017-11-12T20:37:24.804Z,90.00
2017-11-12T20:39:52.721Z,89.20
2017-11-12T20:42:20.310Z,89.30
2017-11-12T20:44:52.559Z,89.20
2017-11-12T20:47:21.047Z,90.10
2017-11-12T20:50:01.302Z,89.00
2017-11-12T20:52:30.095Z,88.90
2017-11-12T20:55:11.701Z,89.60
2017-11-12T20:57:40.645Z,89.20
2017-11-12T21:00:09.702Z,88.20
2017-11-12T21:02:38.806Z,89.40
2017-11-12T21:05:09.547Z,88.20
2017-11-12T21:07:38.067Z,88.30
2017-11-12T21:10:05.583Z,88.30
2017-11-12T21:12:33.889Z,90.10
2017-11-12T21:15:01.459Z,89.10
2017-11-12T21:17:28.980Z,89.50
2017-11-12T21:23:16.104Z,89.70
2017-11-12T21:25:43.662Z,89.90
2017-11-12T21:28:26.843Z,90.10
2017-11-12T21:30:56.499Z,89.70
2017-11-12T21:33:26.666Z,88.90
2017-11-12T21:35:56.629Z,90.00
2017-11-12T21:38:24.438Z,88.90
2017-11-12T21:40:52.711Z,88.90
2017-11-12T21:43:21.101Z,88.90
2017-11-12T21:45:48.801Z,89.10
2017-11-12T21:48:16.425Z,88.60
2017-11-12T21:50:45.144Z,89.80
2017-11-12T21:53:14.373Z,88.90
2017-11-12T21:55:43.422Z,89.00
2017-11-12T21:58:11.815Z,89.60
2017-11-12T22:00:39.697Z,89.50
2017-11-12T22:03:07.685Z,89.30
2017-11-12T22:05:35.274Z,89.40
2017-11-12T22:08:02.900Z,89.30
2017-11-12T22:10:30.547Z,88.90
2017-11-12T22:12:58.265Z,89.00
2017-11-12T22:15:27.350Z,90.00
2017-11-12T22:17:55.046Z,88.60
2017-11-12T22:20:22.728Z,88.70
2017-11-12T22:22:50.383Z,89.20
2017-11-12T22:25:17.997Z,89.30
2017-11-12T22:27:46.395Z,89.30
2017-11-12T22:30:13.998Z,88.20
2017-11-12T22:32:42.368Z,89.80
2017-11-12T22:35:09.951Z,88.80
2017-11-12T22:37:37.606Z,88.30
2017-11-12T22:40:05.265Z,88.20
2017-11-12T22:42:33.828Z,88.00
2017-11-12T22:45:01.484Z,87.80
2017-11-12T22:47:29.235Z,87.60
2017-11-12T22:49:56.861Z,88.10
2017-11-12T22:52:24.456Z,87.50
2017-11-12T22:54:52.105Z,87.70
2017-11-12T22:57:19.700Z,89.00
2017-11-12T22:59:47.345Z,87.80
2017-11-12T23:02:15.874Z,88.10
2017-11-12T23:04:43.569Z,88.10
2017-11-12T23:07:11.215Z,88.00
2017-11-12T23:09:38.836Z,87.40
2017-11-12T23:12:06.477Z,88.30
2017-11-12T23:14:34.937Z,89.60
2017-11-12T23:17:03.332Z,89.30
2017-11-12T23:19:30.999Z,88.50
2017-11-12T23:21:58.645Z,87.80
2017-11-12T23:24:28.575Z,88.80
2017-11-12T23:26:56.163Z,88.20
2017-11-12T23:29:23.894Z,88.10
2017-11-12T23:31:51.561Z,88.00
2017-11-12T23:34:19.165Z,88.50
2017-11-12T23:36:49.431Z,89.10
2017-11-12T23:39:17.120Z,88.10
2017-11-12T23:41:44.750Z,88.30
2017-11-12T23:44:12.416Z,88.60
2017-11-12T23:46:40.079Z,88.80
2017-11-12T23:49:07.696Z,89.10
2017-11-12T23:51:35.296Z,89.10
2017-11-12T23:54:02.965Z,89.10
2017-11-12T23:56:30.571Z,89.20
2017-11-12T23:58:58.146Z,88.90
